createdAt,value
2018-11-04T00:04:46.548Z,98051.80
2018-11-04T00:07:23.049Z,98051.23
2018-11-04T00:09:59.966Z,98057.78
2018-11-04T00:12:35.628Z,98050.22
2018-11-04T00:15:13.228Z,98050.22
2018-11-04T00:17:42.836Z,98045.72
2018-11-04T00:23:08.594Z,98038.52
2018-11-04T00:25:38.647Z,98034.98
2018-11-04T00:28:24.598Z,98037.89
2018-11-04T00:31:06.349Z,98035.63
2018-11-04T00:33:35.801Z,98029.94
2018-11-04T00:36:15.468Z,98032.56
2018-11-04T00:38:46.186Z,98028.06
2018-11-04T00:47:22.115Z,98030.40
2018-11-04T00:49:55.622Z,98040.30
2018-11-04T00:52:24.910Z,98044.23
2018-11-04T00:55:07.002Z,98041.61
2018-11-04T00:57:37.723Z,98034.59
2018-11-04T01:00:11.606Z,98037.20
2018-11-04T01:02:54.188Z,98036.28
2018-11-04T01:05:36.140Z,98032.35
2018-11-04T01:08:06.164Z,98020.95
2018-11-04T01:10:53.304Z,98012.05
2018-11-04T01:13:44.271Z,98006.63
2018-11-04T01:16:18.067Z,98006.05
2018-11-04T01:18:52.563Z,98009.44
2018-11-04T01:21:22.819Z,98006.69
2018-11-04T01:26:45.231Z,98000.44
2018-11-04T01:29:16.975Z,97989.77
2018-11-04T01:32:03.289Z,97984.44
2018-11-04T01:34:32.789Z,97994.91
2018-11-04T01:37:15.389Z,98003.24
2018-11-04T01:39:49.519Z,98019.79
2018-11-04T01:42:19.983Z,98031.67
2018-11-04T01:45:04.907Z,98025.51
2018-11-04T01:47:35.449Z,98017.27
2018-11-04T01:50:12.658Z,98013.63
2018-11-04T01:52:45.474Z,98010.05
2018-11-04T01:55:25.236Z,98015.67
2018-11-04T01:58:09.117Z,98004.81
2018-11-04T02:00:49.766Z,97997.78
2018-11-04T02:03:21.366Z,98005.36
2018-11-04T02:06:14.163Z,98001.08
2018-11-04T02:08:46.809Z,98010.24
2018-11-04T02:11:25.525Z,98017.53
2018-11-04T02:13:57.900Z,98015.09
2018-11-04T02:16:30.828Z,98019.41
2018-11-04T02:19:13.607Z,98027.17
2018-11-04T02:21:47.349Z,98022.28
2018-11-04T02:24:28.253Z,98014.33
2018-11-04T02:27:08.732Z,98013.31
2018-11-04T02:29:46.326Z,98019.37
2018-11-04T02:32:15.850Z,98008.42
2018-11-04T02:34:47.448Z,98009.28
2018-11-04T02:37:16.873Z,98013.56
2018-11-04T02:39:54.275Z,98017.50
2018-11-04T02:42:23.779Z,98008.80
2018-11-04T02:45:06.654Z,98002.73
2018-11-04T02:47:43.534Z,98002.35
2018-11-04T02:50:14.519Z,98007.97
2018-11-04T02:55:51.192Z,98014.63
2018-11-04T02:58:43.783Z,98013.31
2018-11-04T03:01:13.230Z,98012.09
2018-11-04T03:03:52.090Z,98011.72
2018-11-04T03:06:22.237Z,97992.06
2018-11-04T03:08:52.253Z,97986.92
2018-11-04T03:11:26.931Z,97981.33
2018-11-04T03:13:56.270Z,97970.38
2018-11-04T03:16:33.442Z,97972.61
2018-11-04T03:19:09.528Z,97962.61
2018-11-04T03:21:42.488Z,97967.95
2018-11-04T03:24:11.936Z,97967.95
2018-11-04T03:26:48.139Z,97966.73
2018-11-04T03:29:31.508Z,97965.91
2018-11-04T03:32:01.179Z,97962.55
2018-11-04T03:34:30.970Z,97962.55
2018-11-04T03:43:01.601Z,97956.55
2018-11-04T03:45:54.672Z,97948.78
2018-11-04T03:48:40.175Z,97956.55
2018-11-04T03:51:16.745Z,97947.47
2018-11-04T03:57:00.272Z,97944.66
2018-11-04T04:02:24.853Z,97930.59
2018-11-04T04:05:06.902Z,97924.33
2018-11-04T04:07:36.431Z,97922.20
2018-11-04T04:10:25.683Z,97928.27
2018-11-04T04:12:57.283Z,97929.58
2018-11-04T04:15:48.653Z,97931.95
2018-11-04T04:18:23.138Z,97930.64
2018-11-04T04:20:58.966Z,97926.61
2018-11-04T04:23:40.574Z,97927.44
2018-11-04T04:26:13.859Z,97924.92
2018-11-04T04:28:46.493Z,97923.61
2018-11-04T04:31:23.461Z,97919.33
2018-11-04T04:33:54.105Z,97914.09
2018-11-04T04:36:25.057Z,97906.23
2018-11-04T04:38:54.818Z,97906.33
2018-11-04T04:41:30.008Z,97899.88
2018-11-04T04:43:59.523Z,97902.22
2018-11-04T04:46:30.185Z,97910.08
2018-11-04T04:49:01.865Z,97905.77
2018-11-04T04:51:42.554Z,97906.63
2018-11-04T04:54:14.339Z,97910.55
2018-11-04T04:56:51.698Z,97912.22
2018-11-04T04:59:26.418Z,97916.14
2018-11-04T05:01:56.251Z,97915.22
2018-11-04T05:04:32.737Z,97917.45
2018-11-04T05:07:08.634Z,97927.48
2018-11-04T05:09:41.500Z,97928.31
2018-11-04T05:12:16.427Z,97933.07
2018-11-04T05:14:49.384Z,97931.41
2018-11-04T05:17:32.887Z,97937.00
2018-11-04T05:20:02.297Z,97937.86
2018-11-04T05:22:31.829Z,97943.45
2018-11-04T05:25:02.545Z,97936.91
2018-11-04T05:27:48.916Z,97927.00
2018-11-04T05:30:25.436Z,97927.73
2018-11-04T05:32:54.799Z,97924.28
2018-11-04T05:35:27.758Z,97916.05
2018-11-04T05:38:01.361Z,97925.50
2018-11-04T05:43:32.570Z,97917.84
2018-11-04T05:46:03.219Z,97923.27
2018-11-04T05:48:50.819Z,97928.50
2018-11-04T05:51:33.620Z,97926.81
2018-11-04T05:54:03.390Z,97929.05
2018-11-04T05:56:33.479Z,97928.59
2018-11-04T06:02:11.263Z,97925.41
2018-11-04T06:04:52.889Z,97933.99
2018-11-04T06:07:33.221Z,97938.75
2018-11-04T06:10:11.919Z,97936.61
2018-11-04T06:13:05.220Z,97941.38
2018-11-04T06:15:48.260Z,97941.17
2018-11-04T06:18:22.800Z,97947.18
2018-11-04T06:21:12.739Z,97949.67
2018-11-04T06:23:53.540Z,97956.03
2018-11-04T06:26:30.239Z,97957.23
2018-11-04T06:31:54.500Z,97963.34
2018-11-04T06:34:40.519Z,97961.48
2018-11-04T06:37:22.020Z,97959.34
2018-11-04T06:39:52.404Z,97961.39
2018-11-04T06:42:23.239Z,97967.27
2018-11-04T06:44:52.607Z,97961.54
2018-11-04T06:47:24.357Z,97963.52
2018-11-04T06:49:57.519Z,97972.02
2018-11-04T06:52:38.353Z,97976.58
2018-11-04T06:55:26.064Z,97981.97
2018-11-04T06:57:55.643Z,97974.20
2018-11-04T07:00:30.720Z,97971.73
2018-11-04T07:03:00.259Z,97972.74
2018-11-04T07:05:34.179Z,97971.03
2018-11-04T07:08:21.621Z,97969.77
2018-11-04T07:10:58.180Z,97963.14
2018-11-04T07:13:40.960Z,97963.88
2018-11-04T07:16:11.601Z,97958.44
2018-11-04T07:18:41.200Z,97964.52
2018-11-04T07:21:10.828Z,97960.64
2018-11-04T07:30:06.820Z,97950.97
2018-11-04T07:32:53.280Z,97946.61
2018-11-04T07:35:35.463Z,97945.11
2018-11-04T07:38:26.339Z,97946.60
2018-11-04T07:46:54.939Z,97952.73
2018-11-04T07:49:30.342Z,97953.72
2018-11-04T07:54:53.200Z,97945.48
2018-11-04T07:57:23.342Z,97936.45
2018-11-04T08:00:04.880Z,97932.62
2018-11-04T08:02:46.547Z,97941.05
2018-11-04T08:05:23.903Z,97936.23
2018-11-04T08:07:54.008Z,97936.68
2018-11-04T08:10:35.139Z,97938.04
2018-11-04T08:13:14.960Z,97938.70
2018-11-04T08:15:48.256Z,97943.07
2018-11-04T08:27:17.322Z,97934.81
2018-11-04T08:32:49.159Z,97930.15
2018-11-04T08:35:42.659Z,97921.70
2018-11-04T08:38:12.280Z,97929.41
2018-11-04T08:40:45.529Z,97919.89
2018-11-04T08:43:28.687Z,97920.83
2018-11-04T08:46:10.009Z,97924.44
2018-11-04T08:48:39.620Z,97926.38
2018-11-04T08:51:09.199Z,97919.58
2018-11-04T08:53:39.442Z,97915.14
2018-11-04T08:56:10.186Z,97912.77
2018-11-04T08:58:43.000Z,97913.95
2018-11-04T09:01:13.386Z,97920.04
2018-11-04T09:03:44.080Z,97916.56
2018-11-04T09:06:14.604Z,97918.36
2018-11-04T09:08:44.881Z,97911.79
2018-11-04T09:11:16.419Z,97907.73
2018-11-04T09:13:46.181Z,97914.81
2018-11-04T09:16:15.644Z,97914.33
2018-11-04T09:18:46.460Z,97912.89
2018-11-04T09:21:22.299Z,97919.56
2018-11-04T09:23:51.941Z,97913.95
2018-11-04T09:26:22.259Z,97914.53
2018-11-04T09:28:53.220Z,97919.08
2018-11-04T09:31:22.639Z,97912.98
2018-11-04T09:33:52.188Z,97911.97
2018-11-04T09:36:21.773Z,97908.72
2018-11-04T09:38:51.099Z,97910.46
2018-11-04T09:41:20.500Z,97911.41
2018-11-04T09:43:50.169Z,97907.98
2018-11-04T09:46:19.640Z,97909.92
2018-11-04T09:48:49.060Z,97904.45
2018-11-04T09:51:18.487Z,97906.02
2018-11-04T09:53:48.040Z,97906.63
2018-11-04T09:56:17.408Z,97905.34
2018-11-04T09:58:46.841Z,97899.48
2018-11-04T10:01:16.340Z,97889.06
2018-11-04T10:03:46.021Z,97900.44
2018-11-04T10:06:15.859Z,97900.19
2018-11-04T10:08:45.543Z,97892.16
2018-11-04T10:11:15.379Z,97892.66
2018-11-04T10:13:44.999Z,97891.91
2018-11-04T10:16:14.611Z,97878.72
2018-11-04T10:18:44.272Z,97875.59
2018-11-04T10:21:14.180Z,97870.83
2018-11-04T10:23:43.799Z,97870.91
2018-11-04T10:26:13.240Z,97865.26
2018-11-04T10:28:43.520Z,97863.02
2018-11-04T10:31:14.060Z,97861.90
2018-11-04T10:33:43.747Z,97862.16
2018-11-04T10:36:13.549Z,97855.16
2018-11-04T10:38:43.099Z,97858.34
2018-11-04T10:41:12.719Z,97846.90
2018-11-04T10:43:42.495Z,97852.42
2018-11-04T10:46:12.267Z,97849.73
2018-11-04T10:48:41.938Z,97845.41
2018-11-04T10:51:11.619Z,97850.56
2018-11-04T10:53:41.386Z,97842.61
2018-11-04T10:56:11.061Z,97842.08
2018-11-04T10:58:40.461Z,97841.86
2018-11-04T11:01:11.525Z,97835.44
2018-11-04T11:03:41.504Z,97835.05
2018-11-04T11:06:10.962Z,97839.21
2018-11-04T11:08:40.479Z,97827.60
2018-11-04T11:11:10.007Z,97824.67
2018-11-04T11:13:39.480Z,97824.59
2018-11-04T11:16:09.699Z,97822.45
2018-11-04T11:18:39.179Z,97821.17
2018-11-04T11:21:08.600Z,97816.02
2018-11-04T11:23:38.021Z,97809.86
2018-11-04T11:26:07.644Z,97820.44
2018-11-04T11:28:37.119Z,97820.16
2018-11-04T11:31:06.527Z,97813.31
2018-11-04T11:33:36.027Z,97812.52
2018-11-04T11:36:05.883Z,97812.50
2018-11-04T11:38:35.262Z,97810.75
2018-11-04T11:41:04.703Z,97801.09
2018-11-04T11:43:34.147Z,97794.12
2018-11-04T11:46:03.502Z,97793.59
2018-11-04T11:48:33.041Z,97789.40
2018-11-04T11:51:02.460Z,97789.31
2018-11-04T11:53:31.943Z,97785.52
2018-11-04T11:56:01.180Z,97784.46
2018-11-04T11:58:30.553Z,97781.16
2018-11-04T12:00:59.900Z,97791.69
2018-11-04T12:03:29.340Z,97784.13
2018-11-04T12:05:58.686Z,97787.33
2018-11-04T12:08:28.080Z,97786.97
2018-11-04T12:10:57.467Z,97788.66
2018-11-04T12:13:26.963Z,97785.89
2018-11-04T12:15:56.341Z,97780.44
2018-11-04T12:18:25.799Z,97780.70
2018-11-04T12:20:55.108Z,97771.62
2018-11-04T12:23:24.704Z,97775.69
2018-11-04T12:25:54.209Z,97772.09
2018-11-04T12:28:23.646Z,97770.42
2018-11-04T12:30:53.126Z,97767.35
2018-11-04T12:33:22.639Z,97776.97
2018-11-04T12:35:52.101Z,97771.67
2018-11-04T12:38:21.559Z,97764.66
2018-11-04T12:40:51.080Z,97767.25
2018-11-04T12:43:20.389Z,97762.56
2018-11-04T12:45:50.689Z,97764.75
2018-11-04T12:48:20.137Z,97758.79
2018-11-04T12:50:49.401Z,97765.67
2018-11-04T12:53:18.991Z,97766.50
2018-11-04T12:55:48.379Z,97760.00
2018-11-04T12:58:17.941Z,97754.58
2018-11-04T13:00:47.404Z,97754.90
2018-11-04T13:03:16.948Z,97754.45
2018-11-04T13:05:46.300Z,97746.64
2018-11-04T13:08:16.215Z,97745.52
2018-11-04T13:10:45.650Z,97738.64
2018-11-04T13:13:15.130Z,97736.08
2018-11-04T13:15:44.549Z,97740.09
2018-11-04T13:18:14.030Z,97742.13
2018-11-04T13:20:43.521Z,97743.52
2018-11-04T13:23:13.020Z,97746.11
2018-11-04T13:25:42.355Z,97741.38
2018-11-04T13:28:11.881Z,97741.52
2018-11-04T13:30:41.280Z,97743.00
2018-11-04T13:33:10.921Z,97747.16
2018-11-04T13:35:40.342Z,97744.77
2018-11-04T13:38:09.888Z,97738.41
2018-11-04T13:40:39.303Z,97738.30
2018-11-04T13:43:10.848Z,97739.69
2018-11-04T13:45:40.345Z,97737.02
2018-11-04T13:48:09.823Z,97736.09
2018-11-04T13:50:40.162Z,97729.58
2018-11-04T13:53:09.726Z,97734.67
2018-11-04T13:55:39.141Z,97732.72
2018-11-04T13:58:08.601Z,97734.10
2018-11-04T14:00:37.943Z,97733.12
2018-11-04T14:03:07.378Z,97733.61
2018-11-04T14:05:36.801Z,97731.27
2018-11-04T14:08:06.386Z,97724.94
2018-11-04T14:10:35.788Z,97731.98
2018-11-04T14:13:05.584Z,97730.66
2018-11-04T14:15:34.981Z,97731.65
2018-11-04T14:18:04.684Z,97728.89
2018-11-04T14:20:44.473Z,97733.09
2018-11-04T14:23:15.973Z,97729.47
2018-11-04T14:25:45.453Z,97728.28
2018-11-04T14:28:15.123Z,97735.25
2018-11-04T14:30:44.653Z,97740.81
2018-11-04T14:33:14.583Z,97733.98
2018-11-04T14:35:44.278Z,97730.41
2018-11-04T14:38:13.868Z,97735.13
2018-11-04T14:40:43.634Z,97736.45
2018-11-04T14:43:13.225Z,97741.99
2018-11-04T14:45:42.962Z,97738.56
2018-11-04T14:48:14.391Z,97734.97
2018-11-04T14:50:43.913Z,97734.41
2018-11-04T14:53:14.449Z,97732.26
2018-11-04T14:55:44.102Z,97729.05
2018-11-04T14:58:15.130Z,97725.09
2018-11-04T15:00:44.742Z,97729.64
2018-11-04T15:03:15.073Z,97724.52
2018-11-04T15:05:44.894Z,97725.58
2018-11-04T15:08:14.811Z,97727.13
2018-11-04T15:10:44.366Z,97731.91
2018-11-04T15:13:13.867Z,97731.67
2018-11-04T15:15:44.705Z,97729.84
2018-11-04T15:18:14.267Z,97731.06
2018-11-04T15:20:43.813Z,97727.24
2018-11-04T15:23:13.582Z,97722.69
2018-11-04T15:25:46.673Z,97733.66
2018-11-04T15:28:16.442Z,97730.75
2018-11-04T15:30:46.200Z,97724.64
2018-11-04T15:33:15.941Z,97723.78
2018-11-04T15:35:46.339Z,97718.72
2018-11-04T15:38:16.125Z,97718.67
2018-11-04T15:40:46.083Z,97716.23
2018-11-04T15:43:15.628Z,97714.76
2018-11-04T15:45:46.673Z,97716.13
2018-11-04T15:48:16.420Z,97727.15
2018-11-04T15:50:46.253Z,97728.39
2018-11-04T15:53:16.031Z,97724.36
2018-11-04T15:55:45.872Z,97733.66
2018-11-04T15:58:15.460Z,97728.20
2018-11-04T16:00:45.117Z,97732.13
2018-11-04T16:03:15.001Z,97728.72
2018-11-04T16:05:44.772Z,97732.09
2018-11-04T16:08:14.371Z,97730.67
2018-11-04T16:10:47.944Z,97731.28
2018-11-04T16:13:17.562Z,97736.30
2018-11-04T16:15:47.289Z,97737.84
2018-11-04T16:18:17.172Z,97736.02
2018-11-04T16:20:46.922Z,97736.70
2018-11-04T16:23:16.896Z,97738.36
2018-11-04T16:25:47.131Z,97739.03
2018-11-04T16:28:16.896Z,97739.28
2018-11-04T16:30:46.517Z,97739.19
2018-11-04T16:33:16.342Z,97748.83
2018-11-04T16:35:47.208Z,97749.66
2018-11-04T16:38:16.763Z,97745.48
2018-11-04T16:40:46.538Z,97755.13
2018-11-04T16:43:16.653Z,97745.33
2018-11-04T16:45:47.027Z,97744.76
2018-11-04T16:48:16.508Z,97743.83
2018-11-04T16:50:46.199Z,97747.17
2018-11-04T16:53:15.965Z,97749.59
2018-11-04T16:55:45.683Z,97749.78
2018-11-04T16:58:15.482Z,97749.94
2018-11-04T17:00:45.382Z,97763.56
2018-11-04T17:03:15.217Z,97754.48
2018-11-04T17:05:44.951Z,97753.33
2018-11-04T17:08:14.528Z,97754.06
2018-11-04T17:10:44.941Z,97759.58
2018-11-04T17:13:14.504Z,97765.64
2018-11-04T17:15:44.229Z,97768.26
2018-11-04T17:18:14.906Z,97755.35
2018-11-04T17:20:48.286Z,97757.49
2018-11-04T17:23:17.892Z,97756.66
2018-11-04T17:25:47.481Z,97757.49
2018-11-04T17:28:17.282Z,97762.73
2018-11-04T17:30:47.488Z,97761.03
2018-11-04T17:33:17.203Z,97752.94
2018-11-04T17:35:47.027Z,97756.68
2018-11-04T17:38:17.007Z,97754.00
2018-11-04T17:40:46.879Z,97750.95
2018-11-04T17:43:16.611Z,97753.96
2018-11-04T17:45:46.359Z,97764.17
2018-11-04T17:48:16.224Z,97757.06
2018-11-04T17:50:46.150Z,97760.00
2018-11-04T17:53:15.806Z,97757.20
2018-11-04T17:55:45.758Z,97758.35
2018-11-04T17:58:15.475Z,97760.30
2018-11-04T18:00:45.305Z,97766.11
2018-11-04T18:03:14.935Z,97764.98
2018-11-04T18:05:44.753Z,97766.77
2018-11-04T18:08:14.563Z,97767.70
2018-11-04T18:10:44.386Z,97766.87
2018-11-04T18:13:14.357Z,97768.27
2018-11-04T18:15:44.130Z,97770.41
2018-11-04T18:18:14.002Z,97772.48
2018-11-04T18:20:43.918Z,97770.50
2018-11-04T18:23:13.734Z,97766.48
2018-11-04T18:25:43.501Z,97761.41
2018-11-04T18:28:13.310Z,97766.73
2018-11-04T18:30:44.296Z,97766.80
2018-11-04T18:33:13.974Z,97773.05
2018-11-04T18:35:44.897Z,97774.16
2018-11-04T18:38:14.872Z,97763.95
2018-11-04T18:40:45.037Z,97761.14
2018-11-04T18:43:14.692Z,97762.83
2018-11-04T18:45:44.600Z,97754.30
2018-11-04T18:48:14.371Z,97759.24
2018-11-04T18:50:46.133Z,97753.08
2018-11-04T18:53:16.305Z,97763.45
2018-11-04T18:55:46.335Z,97761.56
2018-11-04T18:58:15.958Z,97760.16
2018-11-04T19:00:45.957Z,97759.09
2018-11-04T19:03:16.655Z,97759.95
2018-11-04T19:05:46.371Z,97761.17
2018-11-04T19:08:16.158Z,97765.44
2018-11-04T19:10:46.562Z,97758.32
2018-11-04T19:13:16.527Z,97758.13
2018-11-04T19:15:46.976Z,97761.02
2018-11-04T19:18:16.746Z,97768.87
2018-11-04T19:20:46.539Z,97770.19
2018-11-04T19:23:16.644Z,97770.56
2018-11-04T19:25:46.417Z,97771.97
2018-11-04T19:28:16.839Z,97766.26
2018-11-04T19:30:46.700Z,97771.11
2018-11-04T19:33:16.624Z,97770.19
2018-11-04T19:35:46.827Z,97773.28
2018-11-04T19:38:16.655Z,97777.56
2018-11-04T19:40:46.586Z,97779.34
2018-11-04T19:43:17.272Z,97778.67
2018-11-04T19:45:47.143Z,97786.04
2018-11-04T19:48:17.160Z,97784.73
2018-11-04T19:50:46.939Z,97790.73
2018-11-04T19:53:18.732Z,97798.59
2018-11-04T19:55:50.512Z,97791.36
2018-11-04T19:58:20.531Z,97784.91
2018-11-04T20:00:50.251Z,97779.09
2018-11-04T20:03:22.112Z,97780.41
2018-11-04T20:06:02.456Z,97777.89
2018-11-04T20:08:32.172Z,97781.91
2018-11-04T20:11:01.852Z,97784.63
2018-11-04T20:13:38.478Z,97780.80
2018-11-04T20:16:08.135Z,97774.84
2018-11-04T20:18:43.711Z,97783.37
2018-11-04T20:21:23.271Z,97777.13
2018-11-04T20:23:53.871Z,97772.28
2018-11-04T20:26:24.611Z,97777.56
2018-11-04T20:28:55.292Z,97775.91
2018-11-04T20:31:29.838Z,97779.02
2018-11-04T20:33:59.653Z,97775.77
2018-11-04T20:36:29.454Z,97772.86
2018-11-04T20:39:04.013Z,97773.18
2018-11-04T20:41:35.955Z,97768.59
2018-11-04T20:44:06.502Z,97764.98
2018-11-04T20:46:40.898Z,97756.28
2018-11-04T20:49:18.699Z,97757.52
2018-11-04T20:51:57.497Z,97752.87
2018-11-04T20:54:28.052Z,97754.94
2018-11-04T20:57:06.173Z,97750.28
2018-11-04T20:59:35.681Z,97751.49
2018-11-04T21:02:09.205Z,97752.52
2018-11-04T21:04:38.980Z,97754.94
2018-11-04T21:07:08.869Z,97748.02
2018-11-04T21:09:39.698Z,97751.94
2018-11-04T21:12:09.513Z,97753.53
2018-11-04T21:14:44.632Z,97750.63
2018-11-04T21:17:21.332Z,97749.87
2018-11-04T21:25:37.494Z,97742.08
2018-11-04T21:28:18.190Z,97734.77
2018-11-04T21:30:51.352Z,97729.70
2018-11-04T21:33:21.910Z,97729.59
2018-11-04T21:36:00.818Z,97732.50
2018-11-04T21:38:30.822Z,97731.09
2018-11-04T21:41:08.430Z,97729.20
2018-11-04T21:43:50.054Z,97725.38
2018-11-04T21:46:19.946Z,97729.30
2018-11-04T21:48:57.071Z,97725.66
2018-11-04T21:51:32.606Z,97728.53
2018-11-04T21:54:02.333Z,97730.70
2018-11-04T21:56:39.451Z,97728.53
2018-11-04T21:59:26.702Z,97725.91
2018-11-04T22:02:02.838Z,97718.73
2018-11-04T22:04:38.722Z,97730.16
2018-11-04T22:07:21.546Z,97723.81
2018-11-04T22:09:52.057Z,97723.81
2018-11-04T22:12:23.796Z,97729.40
2018-11-04T22:17:57.919Z,97735.84
2018-11-04T22:20:32.723Z,97737.63
2018-11-04T22:23:06.298Z,97740.06
2018-11-04T22:25:44.012Z,97729.25
2018-11-04T22:31:06.646Z,97728.66
2018-11-04T22:33:53.550Z,97730.09
2018-11-04T22:36:31.185Z,97729.45
2018-11-04T22:39:06.305Z,97732.20
2018-11-04T22:47:33.240Z,97724.44
2018-11-04T22:50:04.888Z,97726.50
2018-11-04T22:52:34.718Z,97729.39
2018-11-04T22:55:07.920Z,97723.79
2018-11-04T22:57:39.623Z,97726.59
2018-11-04T23:00:16.785Z,97726.77
2018-11-04T23:05:51.313Z,97729.41
2018-11-04T23:08:26.987Z,97730.51
2018-11-04T23:13:49.542Z,97732.11
2018-11-04T23:16:36.479Z,97732.40
2018-11-04T23:19:12.404Z,97735.55
2018-11-04T23:21:48.276Z,97735.83
2018-11-04T23:24:27.299Z,97727.91
2018-11-04T23:27:04.036Z,97721.10
2018-11-04T23:29:33.861Z,97718.50
2018-11-04T23:32:08.102Z,97721.95
2018-11-04T23:34:37.762Z,97721.63
2018-11-04T23:37:23.521Z,97719.86
2018-11-04T23:39:56.885Z,97719.82
2018-11-04T23:42:27.795Z,97718.16
2018-11-04T23:45:12.015Z,97723.56
2018-11-04T23:47:59.143Z,97721.91
2018-11-04T23:56:21.244Z,97704.58
